sensor_id;sensor_type;location;lat;lon;timestamp;P1;durP1;ratioP1;P2;durP2;ratioP2
8268;SDS011;4174;48.304;16.364;2023-04-29T00:04:32;15.20;;;8.03;;
8268;SDS011;4174;48.304;16.364;2023-04-29T00:10:36;14.83;;;7.80;;
8268;SDS011;4174;48.304;16.364;2023-04-29T00:16:39;16.40;;;8.30;;
8268;SDS011;4174;48.304;16.364;2023-04-29T00:22:43;15.10;;;8.27;;
8268;SDS011;4174;48.304;16.364;2023-04-29T00:28:48;15.07;;;7.90;;
8268;SDS011;4174;48.304;16.364;2023-04-29T00:34:51;14.52;;;7.80;;
8268;SDS011;4174;48.304;16.364;2023-04-29T00:40:55;14.80;;;8.10;;
8268;SDS011;4174;48.304;16.364;2023-04-29T00:46:57;15.97;;;8.70;;
8268;SDS011;4174;48.304;16.364;2023-04-29T00:53:01;14.60;;;7.57;;
8268;SDS011;4174;48.304;16.364;2023-04-29T00:59:04;16.43;;;9.00;;
8268;SDS011;4174;48.304;16.364;2023-04-29T01:05:07;18.73;;;9.10;;
8268;SDS011;4174;48.304;16.364;2023-04-29T01:11:10;19.50;;;9.70;;
8268;SDS011;4174;48.304;16.364;2023-04-29T01:17:14;17.03;;;8.87;;
8268;SDS011;4174;48.304;16.364;2023-04-29T01:23:17;14.75;;;8.10;;
8268;SDS011;4174;48.304;16.364;2023-04-29T01:29:25;14.80;;;8.53;;
8268;SDS011;4174;48.304;16.364;2023-04-29T01:35:52;19.05;;;9.20;;
8268;SDS011;4174;48.304;16.364;2023-04-29T01:48:53;23.10;;;11.40;;
8268;SDS011;4174;48.304;16.364;2023-04-29T01:54:57;21.23;;;11.70;;
8268;SDS011;4174;48.304;16.364;2023-04-29T02:01:01;22.98;;;12.27;;
8268;SDS011;4174;48.304;16.364;2023-04-29T02:07:05;22.55;;;11.52;;
8268;SDS011;4174;48.304;16.364;2023-04-29T02:13:09;23.23;;;12.30;;
8268;SDS011;4174;48.304;16.364;2023-04-29T02:19:13;25.73;;;13.50;;
8268;SDS011;4174;48.304;16.364;2023-04-29T02:25:16;24.50;;;12.75;;
8268;SDS011;4174;48.304;16.364;2023-04-29T02:31:21;25.90;;;14.40;;
8268;SDS011;4174;48.304;16.364;2023-04-29T02:37:24;31.12;;;15.82;;
8268;SDS011;4174;48.304;16.364;2023-04-29T02:43:29;32.55;;;16.17;;
8268;SDS011;4174;48.304;16.364;2023-04-29T02:49:32;32.50;;;17.02;;
8268;SDS011;4174;48.304;16.364;2023-04-29T02:55:36;33.00;;;17.57;;
8268;SDS011;4174;48.304;16.364;2023-04-29T03:01:39;33.10;;;17.23;;
8268;SDS011;4174;48.304;16.364;2023-04-29T03:07:43;29.98;;;16.45;;
8268;SDS011;4174;48.304;16.364;2023-04-29T03:13:47;29.17;;;16.37;;
8268;SDS011;4174;48.304;16.364;2023-04-29T03:19:51;29.13;;;15.77;;
8268;SDS011;4174;48.304;16.364;2023-04-29T03:25:54;28.43;;;15.60;;
8268;SDS011;4174;48.304;16.364;2023-04-29T03:32:00;29.43;;;16.13;;
8268;SDS011;4174;48.304;16.364;2023-04-29T03:38:04;31.83;;;16.30;;
8268;SDS011;4174;48.304;16.364;2023-04-29T03:44:09;32.00;;;16.50;;
8268;SDS011;4174;48.304;16.364;2023-04-29T03:50:13;32.77;;;17.10;;
8268;SDS011;4174;48.304;16.364;2023-04-29T03:56:16;36.38;;;17.67;;
8268;SDS011;4174;48.304;16.364;2023-04-29T04:02:20;38.73;;;18.57;;
8268;SDS011;4174;48.304;16.364;2023-04-29T04:08:25;38.72;;;18.02;;
8268;SDS011;4174;48.304;16.364;2023-04-29T04:14:29;44.28;;;19.10;;
8268;SDS011;4174;48.304;16.364;2023-04-29T04:20:32;48.60;;;19.87;;
8268;SDS011;4174;48.304;16.364;2023-04-29T04:26:37;46.63;;;19.80;;
8268;SDS011;4174;48.304;16.364;2023-04-29T04:32:41;46.00;;;20.27;;
8268;SDS011;4174;48.304;16.364;2023-04-29T04:38:44;50.85;;;22.40;;
8268;SDS011;4174;48.304;16.364;2023-04-29T04:44:48;49.67;;;22.07;;
8268;SDS011;4174;48.304;16.364;2023-04-29T04:50:52;46.78;;;21.17;;
8268;SDS011;4174;48.304;16.364;2023-04-29T04:56:56;42.30;;;19.63;;
8268;SDS011;4174;48.304;16.364;2023-04-29T05:02:59;43.20;;;19.97;;
8268;SDS011;4174;48.304;16.364;2023-04-29T05:09:03;41.27;;;19.50;;
8268;SDS011;4174;48.304;16.364;2023-04-29T05:15:09;48.30;;;21.33;;
8268;SDS011;4174;48.304;16.364;2023-04-29T05:21:13;46.80;;;21.07;;
8268;SDS011;4174;48.304;16.364;2023-04-29T05:27:17;48.72;;;21.83;;
8268;SDS011;4174;48.304;16.364;2023-04-29T05:33:20;47.27;;;22.03;;
8268;SDS011;4174;48.304;16.364;2023-04-29T05:39:24;49.10;;;22.07;;
8268;SDS011;4174;48.304;16.364;2023-04-29T05:45:28;43.17;;;20.00;;
8268;SDS011;4174;48.304;16.364;2023-04-29T05:51:31;40.57;;;20.20;;
8268;SDS011;4174;48.304;16.364;2023-04-29T05:57:35;39.47;;;20.03;;
8268;SDS011;4174;48.304;16.364;2023-04-29T06:03:39;43.90;;;20.13;;
8268;SDS011;4174;48.304;16.364;2023-04-29T06:09:43;39.50;;;19.23;;
8268;SDS011;4174;48.304;16.364;2023-04-29T06:15:46;47.23;;;22.00;;
8268;SDS011;4174;48.304;16.364;2023-04-29T06:21:49;43.10;;;20.20;;
8268;SDS011;4174;48.304;16.364;2023-04-29T06:27:53;42.17;;;19.70;;
8268;SDS011;4174;48.304;16.364;2023-04-29T06:33:56;40.33;;;19.40;;
8268;SDS011;4174;48.304;16.364;2023-04-29T06:40:01;38.38;;;18.52;;
8268;SDS011;4174;48.304;16.364;2023-04-29T06:46:05;36.50;;;17.37;;
8268;SDS011;4174;48.304;16.364;2023-04-29T06:52:09;32.65;;;16.62;;
8268;SDS011;4174;48.304;16.364;2023-04-29T06:58:12;32.63;;;17.08;;
8268;SDS011;4174;48.304;16.364;2023-04-29T07:04:15;29.60;;;15.40;;
8268;SDS011;4174;48.304;16.364;2023-04-29T07:10:19;26.10;;;13.60;;
8268;SDS011;4174;48.304;16.364;2023-04-29T07:16:22;24.07;;;13.17;;
8268;SDS011;4174;48.304;16.364;2023-04-29T07:22:26;22.65;;;11.93;;
8268;SDS011;4174;48.304;16.364;2023-04-29T07:28:30;20.83;;;11.30;;
8268;SDS011;4174;48.304;16.364;2023-04-29T07:34:33;18.62;;;10.20;;
8268;SDS011;4174;48.304;16.364;2023-04-29T07:40:37;18.40;;;9.87;;
8268;SDS011;4174;48.304;16.364;2023-04-29T07:46:42;16.20;;;9.20;;
8268;SDS011;4174;48.304;16.364;2023-04-29T07:52:45;17.48;;;9.27;;
8268;SDS011;4174;48.304;16.364;2023-04-29T07:58:50;19.48;;;10.38;;
8268;SDS011;4174;48.304;16.364;2023-04-29T08:04:53;18.98;;;10.05;;
8268;SDS011;4174;48.304;16.364;2023-04-29T08:10:58;17.93;;;9.43;;
8268;SDS011;4174;48.304;16.364;2023-04-29T08:17:02;16.55;;;9.32;;
8268;SDS011;4174;48.304;16.364;2023-04-29T08:23:06;15.73;;;8.43;;
8268;SDS011;4174;48.304;16.364;2023-04-29T08:29:10;14.07;;;7.75;;
8268;SDS011;4174;48.304;16.364;2023-04-29T08:35:14;13.90;;;6.70;;
8268;SDS011;4174;48.304;16.364;2023-04-29T08:41:17;14.00;;;7.62;;
8268;SDS011;4174;48.304;16.364;2023-04-29T08:47:21;13.20;;;7.20;;
8268;SDS011;4174;48.304;16.364;2023-04-29T08:53:24;13.13;;;6.70;;
8268;SDS011;4174;48.304;16.364;2023-04-29T08:59:27;12.07;;;6.80;;
8268;SDS011;4174;48.304;16.364;2023-04-29T09:05:31;11.27;;;6.40;;
8268;SDS011;4174;48.304;16.364;2023-04-29T09:11:33;15.17;;;7.87;;
8268;SDS011;4174;48.304;16.364;2023-04-29T09:17:37;15.73;;;9.13;;
8268;SDS011;4174;48.304;16.364;2023-04-29T09:23:46;16.77;;;9.73;;
8268;SDS011;4174;48.304;16.364;2023-04-29T09:29:59;17.70;;;9.67;;
8268;SDS011;4174;48.304;16.364;2023-04-29T09:36:01;14.63;;;8.70;;
8268;SDS011;4174;48.304;16.364;2023-04-29T09:42:06;15.43;;;8.82;;
8268;SDS011;4174;48.304;16.364;2023-04-29T09:48:09;14.77;;;8.07;;
8268;SDS011;4174;48.304;16.364;2023-04-29T10:00:22;10.93;;;6.50;;
8268;SDS011;4174;48.304;16.364;2023-04-29T10:06:25;12.45;;;6.93;;
8268;SDS011;4174;48.304;16.364;2023-04-29T10:12:30;6.37;;;2.80;;
8268;SDS011;4174;48.304;16.364;2023-04-29T10:18:34;11.80;;;3.80;;
8268;SDS011;4174;48.304;16.364;2023-04-29T10:24:38;6.83;;;3.00;;
8268;SDS011;4174;48.304;16.364;2023-04-29T10:30:42;4.50;;;1.60;;
8268;SDS011;4174;48.304;16.364;2023-04-29T10:36:45;4.87;;;1.97;;
8268;SDS011;4174;48.304;16.364;2023-04-29T10:42:48;5.00;;;1.90;;
8268;SDS011;4174;48.304;16.364;2023-04-29T10:48:56;5.30;;;1.80;;
8268;SDS011;4174;48.304;16.364;2023-04-29T10:55:01;4.63;;;1.50;;
8268;SDS011;4174;48.304;16.364;2023-04-29T11:01:04;4.37;;;1.60;;
8268;SDS011;4174;48.304;16.364;2023-04-29T11:07:06;7.17;;;3.47;;
8268;SDS011;4174;48.304;16.364;2023-04-29T11:19:32;11.80;;;7.13;;
8268;SDS011;4174;48.304;16.364;2023-04-29T11:25:35;15.40;;;8.18;;
8268;SDS011;4174;48.304;16.364;2023-04-29T11:31:38;15.40;;;8.20;;
8268;SDS011;4174;48.304;16.364;2023-04-29T11:37:43;15.88;;;8.93;;
8268;SDS011;4174;48.304;16.364;2023-04-29T11:43:45;17.10;;;9.40;;
8268;SDS011;4174;48.304;16.364;2023-04-29T11:49:49;15.43;;;8.10;;
8268;SDS011;4174;48.304;16.364;2023-04-29T11:55:53;12.40;;;6.72;;
8268;SDS011;4174;48.304;16.364;2023-04-29T12:01:56;14.23;;;7.57;;
8268;SDS011;4174;48.304;16.364;2023-04-29T12:07:58;12.27;;;6.70;;
8268;SDS011;4174;48.304;16.364;2023-04-29T12:14:02;12.82;;;5.82;;
8268;SDS011;4174;48.304;16.364;2023-04-29T12:20:08;11.38;;;5.60;;
8268;SDS011;4174;48.304;16.364;2023-04-29T12:26:13;11.88;;;5.78;;
8268;SDS011;4174;48.304;16.364;2023-04-29T12:32:20;12.32;;;6.25;;
8268;SDS011;4174;48.304;16.364;2023-04-29T12:38:23;11.20;;;6.12;;
8268;SDS011;4174;48.304;16.364;2023-04-29T12:44:33;11.80;;;6.00;;
8268;SDS011;4174;48.304;16.364;2023-04-29T12:50:45;11.13;;;5.87;;
8268;SDS011;4174;48.304;16.364;2023-04-29T12:56:48;12.05;;;6.22;;
8268;SDS011;4174;48.304;16.364;2023-04-29T13:02:51;15.20;;;8.50;;
8268;SDS011;4174;48.304;16.364;2023-04-29T13:08:55;19.73;;;10.27;;
8268;SDS011;4174;48.304;16.364;2023-04-29T13:14:59;14.07;;;7.30;;
8268;SDS011;4174;48.304;16.364;2023-04-29T13:21:02;12.07;;;6.63;;
8268;SDS011;4174;48.304;16.364;2023-04-29T13:27:06;9.65;;;4.70;;
8268;SDS011;4174;48.304;16.364;2023-04-29T13:33:10;7.03;;;2.77;;
8268;SDS011;4174;48.304;16.364;2023-04-29T13:39:14;4.67;;;1.67;;
8268;SDS011;4174;48.304;16.364;2023-04-29T13:45:17;4.30;;;1.50;;
8268;SDS011;4174;48.304;16.364;2023-04-29T13:51:21;4.82;;;1.80;;
8268;SDS011;4174;48.304;16.364;2023-04-29T13:57:25;6.30;;;2.20;;
8268;SDS011;4174;48.304;16.364;2023-04-29T14:03:29;6.37;;;2.25;;
8268;SDS011;4174;48.304;16.364;2023-04-29T14:09:33;6.40;;;2.60;;
8268;SDS011;4174;48.304;16.364;2023-04-29T14:15:37;7.10;;;3.35;;
8268;SDS011;4174;48.304;16.364;2023-04-29T14:21:40;6.53;;;2.80;;
8268;SDS011;4174;48.304;16.364;2023-04-29T14:27:44;6.45;;;2.05;;
8268;SDS011;4174;48.304;16.364;2023-04-29T14:33:47;6.87;;;2.80;;
8268;SDS011;4174;48.304;16.364;2023-04-29T14:39:51;8.70;;;4.00;;
8268;SDS011;4174;48.304;16.364;2023-04-29T14:45:54;8.80;;;3.80;;
8268;SDS011;4174;48.304;16.364;2023-04-29T14:51:58;7.63;;;2.70;;
8268;SDS011;4174;48.304;16.364;2023-04-29T14:58:01;7.13;;;2.87;;
8268;SDS011;4174;48.304;16.364;2023-04-29T15:04:05;7.33;;;3.40;;
8268;SDS011;4174;48.304;16.364;2023-04-29T15:10:09;7.22;;;2.70;;
8268;SDS011;4174;48.304;16.364;2023-04-29T15:16:12;6.23;;;1.20;;
8268;SDS011;4174;48.304;16.364;2023-04-29T15:22:18;6.78;;;1.55;;
8268;SDS011;4174;48.304;16.364;2023-04-29T15:28:22;6.87;;;1.60;;
8268;SDS011;4174;48.304;16.364;2023-04-29T15:34:25;5.67;;;1.50;;
8268;SDS011;4174;48.304;16.364;2023-04-29T15:40:29;5.85;;;1.40;;
8268;SDS011;4174;48.304;16.364;2023-04-29T15:46:34;6.70;;;1.70;;
8268;SDS011;4174;48.304;16.364;2023-04-29T15:52:37;5.30;;;1.90;;
8268;SDS011;4174;48.304;16.364;2023-04-29T15:58:42;5.30;;;1.80;;
8268;SDS011;4174;48.304;16.364;2023-04-29T16:04:45;7.50;;;2.03;;
8268;SDS011;4174;48.304;16.364;2023-04-29T16:10:49;4.80;;;1.80;;
8268;SDS011;4174;48.304;16.364;2023-04-29T16:16:53;7.15;;;2.10;;
8268;SDS011;4174;48.304;16.364;2023-04-29T16:22:56;5.67;;;2.20;;
8268;SDS011;4174;48.304;16.364;2023-04-29T16:29:00;7.55;;;2.40;;
8268;SDS011;4174;48.304;16.364;2023-04-29T16:35:04;6.70;;;2.30;;
8268;SDS011;4174;48.304;16.364;2023-04-29T16:41:10;7.05;;;2.75;;
8268;SDS011;4174;48.304;16.364;2023-04-29T16:47:13;6.70;;;2.80;;
8268;SDS011;4174;48.304;16.364;2023-04-29T16:53:17;9.80;;;3.00;;
8268;SDS011;4174;48.304;16.364;2023-04-29T16:59:21;7.30;;;3.20;;
8268;SDS011;4174;48.304;16.364;2023-04-29T17:05:24;8.10;;;3.00;;
8268;SDS011;4174;48.304;16.364;2023-04-29T17:11:27;7.80;;;3.20;;
8268;SDS011;4174;48.304;16.364;2023-04-29T17:17:32;7.80;;;3.00;;
8268;SDS011;4174;48.304;16.364;2023-04-29T17:23:36;8.70;;;3.17;;
8268;SDS011;4174;48.304;16.364;2023-04-29T17:29:40;8.88;;;3.60;;
8268;SDS011;4174;48.304;16.364;2023-04-29T17:35:44;8.53;;;3.80;;
8268;SDS011;4174;48.304;16.364;2023-04-29T17:41:48;9.37;;;3.67;;
8268;SDS011;4174;48.304;16.364;2023-04-29T17:47:52;9.07;;;3.47;;
8268;SDS011;4174;48.304;16.364;2023-04-29T17:53:55;9.00;;;4.20;;
8268;SDS011;4174;48.304;16.364;2023-04-29T17:59:59;12.00;;;4.80;;
8268;SDS011;4174;48.304;16.364;2023-04-29T18:06:04;9.15;;;4.70;;
8268;SDS011;4174;48.304;16.364;2023-04-29T18:12:07;9.47;;;5.03;;
8268;SDS011;4174;48.304;16.364;2023-04-29T18:18:11;9.65;;;4.80;;
8268;SDS011;4174;48.304;16.364;2023-04-29T18:24:14;10.90;;;4.50;;
8268;SDS011;4174;48.304;16.364;2023-04-29T18:30:18;12.23;;;6.35;;
8268;SDS011;4174;48.304;16.364;2023-04-29T18:36:23;12.83;;;6.23;;
8268;SDS011;4174;48.304;16.364;2023-04-29T18:42:27;11.38;;;5.47;;
8268;SDS011;4174;48.304;16.364;2023-04-29T18:48:30;9.83;;;5.13;;
8268;SDS011;4174;48.304;16.364;2023-04-29T18:54:34;11.23;;;5.20;;
8268;SDS011;4174;48.304;16.364;2023-04-29T19:00:38;13.95;;;5.45;;
8268;SDS011;4174;48.304;16.364;2023-04-29T19:06:41;20.30;;;8.93;;
8268;SDS011;4174;48.304;16.364;2023-04-29T19:12:44;19.08;;;8.60;;
8268;SDS011;4174;48.304;16.364;2023-04-29T19:18:48;19.85;;;10.13;;
8268;SDS011;4174;48.304;16.364;2023-04-29T19:24:51;20.37;;;8.97;;
8268;SDS011;4174;48.304;16.364;2023-04-29T19:30:54;14.13;;;7.30;;
8268;SDS011;4174;48.304;16.364;2023-04-29T19:36:58;13.93;;;6.40;;
8268;SDS011;4174;48.304;16.364;2023-04-29T19:43:02;13.65;;;7.15;;
8268;SDS011;4174;48.304;16.364;2023-04-29T19:49:05;15.67;;;7.63;;
8268;SDS011;4174;48.304;16.364;2023-04-29T19:55:09;21.25;;;9.68;;
8268;SDS011;4174;48.304;16.364;2023-04-29T20:01:13;15.27;;;7.45;;
8268;SDS011;4174;48.304;16.364;2023-04-29T20:07:16;14.00;;;6.50;;
8268;SDS011;4174;48.304;16.364;2023-04-29T20:13:20;12.10;;;6.20;;
8268;SDS011;4174;48.304;16.364;2023-04-29T20:19:24;11.73;;;6.10;;
8268;SDS011;4174;48.304;16.364;2023-04-29T20:25:28;12.13;;;5.78;;
8268;SDS011;4174;48.304;16.364;2023-04-29T20:31:32;12.00;;;5.97;;
8268;SDS011;4174;48.304;16.364;2023-04-29T20:37:36;10.23;;;5.30;;
8268;SDS011;4174;48.304;16.364;2023-04-29T20:43:40;11.77;;;5.70;;
8268;SDS011;4174;48.304;16.364;2023-04-29T20:49:43;11.10;;;5.80;;
8268;SDS011;4174;48.304;16.364;2023-04-29T20:55:47;13.82;;;6.32;;
8268;SDS011;4174;48.304;16.364;2023-04-29T21:01:51;12.53;;;5.90;;
8268;SDS011;4174;48.304;16.364;2023-04-29T21:07:54;19.00;;;9.20;;
8268;SDS011;4174;48.304;16.364;2023-04-29T21:13:58;15.40;;;7.60;;
8268;SDS011;4174;48.304;16.364;2023-04-29T21:20:02;11.85;;;6.00;;
8268;SDS011;4174;48.304;16.364;2023-04-29T21:26:07;11.23;;;5.83;;
8268;SDS011;4174;48.304;16.364;2023-04-29T21:32:12;10.52;;;5.30;;
8268;SDS011;4174;48.304;16.364;2023-04-29T21:38:17;10.13;;;5.03;;
8268;SDS011;4174;48.304;16.364;2023-04-29T21:44:20;10.52;;;5.40;;
8268;SDS011;4174;48.304;16.364;2023-04-29T21:50:22;10.03;;;5.30;;
8268;SDS011;4174;48.304;16.364;2023-04-29T21:56:26;9.80;;;5.23;;
8268;SDS011;4174;48.304;16.364;2023-04-29T22:02:29;9.70;;;5.30;;
8268;SDS011;4174;48.304;16.364;2023-04-29T22:08:33;9.70;;;5.30;;
8268;SDS011;4174;48.304;16.364;2023-04-29T22:14:36;10.07;;;5.20;;
8268;SDS011;4174;48.304;16.364;2023-04-29T22:20:40;9.20;;;4.90;;
8268;SDS011;4174;48.304;16.364;2023-04-29T22:26:44;9.23;;;4.65;;
8268;SDS011;4174;48.304;16.364;2023-04-29T22:32:47;10.20;;;5.30;;
8268;SDS011;4174;48.304;16.364;2023-04-29T22:38:53;9.73;;;5.10;;
8268;SDS011;4174;48.304;16.364;2023-04-29T22:44:57;10.73;;;5.25;;
8268;SDS011;4174;48.304;16.364;2023-04-29T22:51:01;9.80;;;5.17;;
8268;SDS011;4174;48.304;16.364;2023-04-29T22:57:05;11.10;;;5.37;;
8268;SDS011;4174;48.304;16.364;2023-04-29T23:03:10;11.27;;;5.63;;
8268;SDS011;4174;48.304;16.364;2023-04-29T23:09:14;10.85;;;5.37;;
8268;SDS011;4174;48.304;16.364;2023-04-29T23:15:17;10.35;;;5.50;;
8268;SDS011;4174;48.304;16.364;2023-04-29T23:21:21;11.05;;;5.93;;
8268;SDS011;4174;48.304;16.364;2023-04-29T23:27:25;10.83;;;5.93;;
8268;SDS011;4174;48.304;16.364;2023-04-29T23:33:28;12.00;;;6.40;;
8268;SDS011;4174;48.304;16.364;2023-04-29T23:39:32;14.33;;;6.50;;
8268;SDS011;4174;48.304;16.364;2023-04-29T23:45:36;12.57;;;6.53;;
8268;SDS011;4174;48.304;16.364;2023-04-29T23:51:39;11.83;;;6.40;;
8268;SDS011;4174;48.304;16.364;2023-04-29T23:57:43;11.65;;;6.00;;
